createdAt,value
2019-04-26T00:01:38.700Z,1.73
2019-04-26T00:04:07.743Z,1.70
2019-04-26T00:06:37.734Z,1.57
2019-04-26T00:09:13.964Z,1.20
2019-04-26T00:11:53.492Z,1.90
2019-04-26T00:14:29.632Z,1.50
2019-04-26T00:16:59.970Z,1.67
2019-04-26T00:19:29.019Z,1.63
2019-04-26T00:21:58.112Z,1.67
2019-04-26T00:24:28.492Z,1.90
2019-04-26T00:26:57.254Z,1.70
2019-04-26T00:29:25.572Z,1.55
2019-04-26T00:31:54.303Z,1.70
2019-04-26T00:34:22.645Z,1.42
2019-04-26T00:36:51.036Z,2.00
2019-04-26T00:39:20.332Z,1.80
2019-04-26T00:41:49.098Z,1.70
2019-04-26T00:44:18.606Z,1.75
2019-04-26T00:46:47.383Z,2.30
2019-04-26T00:49:17.031Z,2.00
2019-04-26T00:51:46.135Z,1.77
2019-04-26T00:54:15.497Z,1.77
2019-04-26T00:56:44.253Z,2.53
2019-04-26T00:59:14.913Z,1.80
2019-04-26T01:01:44.798Z,1.30
2019-04-26T01:04:14.550Z,1.50
2019-04-26T01:06:45.517Z,1.30
2019-04-26T01:09:15.887Z,1.57
2019-04-26T01:11:44.431Z,1.83
2019-04-26T01:14:13.035Z,1.70
2019-04-26T01:16:41.423Z,1.40
2019-04-26T01:19:10.187Z,1.22
2019-04-26T01:21:44.661Z,1.35
2019-04-26T01:24:13.277Z,1.43
2019-04-26T01:26:41.860Z,1.40
2019-04-26T01:29:13.966Z,1.32
2019-04-26T01:31:48.431Z,1.10
2019-04-26T01:34:17.742Z,1.20
2019-04-26T01:36:47.483Z,1.30
2019-04-26T01:39:19.670Z,1.47
2019-04-26T01:41:51.002Z,1.50
2019-04-26T01:44:40.619Z,1.57
2019-04-26T01:47:09.223Z,1.37
2019-04-26T01:49:37.833Z,1.30
2019-04-26T01:52:10.347Z,1.67
2019-04-26T01:54:41.616Z,1.20
2019-04-26T01:57:10.379Z,1.53
2019-04-26T02:02:25.643Z,1.50
2019-04-26T02:04:58.814Z,1.20
2019-04-26T02:07:29.125Z,1.50
2019-04-26T02:09:57.723Z,1.80
2019-04-26T02:12:26.733Z,1.40
2019-04-26T02:14:55.418Z,1.50
2019-04-26T02:17:24.502Z,1.60
2019-04-26T02:19:53.985Z,1.50
2019-04-26T02:22:40.765Z,1.30
2019-04-26T02:25:09.367Z,1.47
2019-04-26T02:27:37.942Z,1.40
2019-04-26T02:30:08.119Z,1.50
2019-04-26T02:32:37.224Z,1.20
2019-04-26T02:35:06.586Z,1.70
2019-04-26T02:37:36.741Z,1.30
2019-04-26T02:40:08.979Z,1.30
2019-04-26T02:42:39.653Z,1.40
2019-04-26T02:45:34.767Z,1.50
2019-04-26T02:48:16.771Z,1.23
2019-04-26T02:50:53.017Z,1.60
2019-04-26T02:53:38.714Z,1.60
2019-04-26T02:56:10.921Z,1.40
2019-04-26T02:58:58.026Z,1.50
2019-04-26T03:01:29.330Z,1.70
2019-04-26T03:03:57.534Z,1.87
2019-04-26T03:06:26.216Z,1.70
2019-04-26T03:08:55.672Z,2.12
2019-04-26T03:11:27.071Z,1.67
2019-04-26T03:13:57.654Z,1.73
2019-04-26T03:16:33.364Z,1.70
2019-04-26T03:19:10.758Z,2.00
2019-04-26T03:22:06.962Z,2.00
2019-04-26T03:24:40.480Z,1.73
2019-04-26T03:27:35.886Z,2.70
2019-04-26T03:30:21.649Z,2.87
2019-04-26T03:32:54.018Z,2.60
2019-04-26T03:35:29.511Z,2.10
2019-04-26T03:38:21.003Z,2.53
2019-04-26T03:41:03.108Z,2.87
2019-04-26T03:43:51.762Z,2.73
2019-04-26T03:46:35.530Z,2.80
2019-04-26T03:49:24.715Z,2.50
2019-04-26T03:54:36.912Z,2.50
2019-04-26T03:57:38.779Z,2.63
2019-04-26T04:00:23.269Z,2.83
2019-04-26T04:03:28.958Z,2.57
2019-04-26T04:05:59.101Z,2.40
2019-04-26T04:08:30.989Z,3.00
2019-04-26T04:11:06.040Z,2.50
2019-04-26T04:13:54.891Z,3.10
2019-04-26T04:16:30.592Z,3.20
2019-04-26T04:19:02.479Z,3.50
2019-04-26T04:21:40.693Z,2.90
2019-04-26T04:24:14.493Z,2.75
2019-04-26T04:26:55.706Z,3.23
2019-04-26T04:29:42.941Z,3.13
2019-04-26T04:32:32.995Z,3.33
2019-04-26T04:35:10.821Z,4.10
2019-04-26T04:38:08.613Z,3.83
2019-04-26T04:40:58.790Z,3.43
2019-04-26T04:43:37.982Z,4.10
2019-04-26T04:46:17.674Z,3.70
2019-04-26T04:49:11.812Z,3.83
2019-04-26T04:51:49.891Z,4.90
2019-04-26T04:54:20.975Z,4.67
2019-04-26T04:57:10.622Z,5.63
2019-04-26T04:59:50.850Z,5.80
2019-04-26T05:02:26.946Z,5.10
2019-04-26T05:05:06.320Z,6.00
2019-04-26T05:08:06.752Z,5.43
2019-04-26T05:10:39.976Z,5.73
2019-04-26T05:13:11.958Z,6.23
2019-04-26T05:16:20.256Z,5.70
2019-04-26T05:19:13.242Z,8.20
2019-04-26T05:22:07.969Z,6.50
2019-04-26T05:24:56.370Z,6.60
2019-04-26T05:27:48.241Z,6.62
2019-04-26T05:30:39.484Z,6.37
2019-04-26T05:33:11.535Z,8.40
2019-04-26T05:36:07.259Z,6.17
2019-04-26T05:38:58.427Z,7.40
2019-04-26T05:41:53.535Z,7.63
2019-04-26T05:45:06.328Z,7.30
2019-04-26T05:47:38.844Z,6.70
2019-04-26T05:50:33.770Z,7.13
2019-04-26T05:53:31.269Z,8.83
2019-04-26T05:56:11.021Z,7.17
2019-04-26T05:59:10.005Z,7.37
2019-04-26T06:02:21.056Z,8.20
2019-04-26T06:05:14.959Z,7.37
2019-04-26T06:08:03.079Z,7.50
2019-04-26T06:10:45.641Z,7.20
2019-04-26T06:13:30.936Z,7.40
2019-04-26T06:16:26.967Z,7.77
2019-04-26T06:19:18.425Z,5.60
2019-04-26T06:22:10.815Z,4.77
2019-04-26T06:24:45.170Z,3.87
2019-04-26T06:27:38.573Z,4.00
2019-04-26T06:30:17.178Z,4.00
2019-04-26T06:33:00.952Z,4.20
2019-04-26T06:38:23.665Z,4.37
2019-04-26T06:41:04.915Z,5.00
2019-04-26T06:43:42.729Z,5.00
2019-04-26T06:46:33.999Z,4.90
2019-04-26T06:49:25.192Z,5.93
2019-04-26T06:51:57.512Z,6.10
2019-04-26T06:54:33.351Z,6.10
2019-04-26T06:57:38.248Z,5.53
2019-04-26T07:00:13.660Z,5.67
2019-04-26T07:03:05.679Z,5.00
2019-04-26T07:05:36.252Z,5.10
2019-04-26T07:08:17.126Z,5.20
2019-04-26T07:11:01.238Z,4.37
2019-04-26T07:13:59.331Z,4.40
2019-04-26T07:16:41.136Z,4.37
2019-04-26T07:19:49.539Z,5.13
2019-04-26T07:25:36.192Z,3.90
2019-04-26T07:28:24.693Z,3.43
2019-04-26T07:31:18.137Z,4.50
2019-04-26T07:34:22.142Z,4.47
2019-04-26T07:37:11.405Z,6.40
2019-04-26T07:40:11.610Z,6.57
2019-04-26T07:43:06.424Z,6.50
2019-04-26T07:45:52.071Z,6.20
2019-04-26T07:48:23.118Z,7.57
2019-04-26T07:51:11.636Z,5.43
2019-04-26T07:53:43.327Z,4.70
2019-04-26T07:56:34.621Z,3.83
2019-04-26T07:59:38.528Z,3.50
2019-04-26T08:02:29.354Z,3.10
2019-04-26T08:05:19.341Z,3.10
2019-04-26T08:07:54.005Z,3.27
2019-04-26T08:10:22.683Z,3.60
2019-04-26T08:12:54.561Z,3.35
2019-04-26T08:15:40.148Z,2.60
2019-04-26T08:18:13.502Z,3.30
2019-04-26T08:20:52.715Z,3.07
2019-04-26T08:23:39.218Z,2.83
2019-04-26T08:25:56.430Z,2.77
2019-04-26T08:28:25.113Z,3.17
2019-04-26T08:30:55.195Z,3.08
2019-04-26T08:33:27.519Z,2.63
2019-04-26T08:35:56.187Z,2.70
2019-04-26T08:38:25.066Z,2.83
2019-04-26T08:40:53.717Z,2.30
2019-04-26T08:43:35.971Z,2.30
2019-04-26T08:46:12.573Z,2.13
2019-04-26T08:48:41.177Z,2.03
2019-04-26T08:51:21.847Z,2.83
2019-04-26T08:53:50.876Z,2.43
2019-04-26T08:56:28.400Z,2.65
2019-04-26T08:59:00.279Z,2.40
2019-04-26T09:01:30.535Z,4.10
2019-04-26T09:04:00.864Z,4.03
2019-04-26T09:06:39.967Z,3.40
2019-04-26T09:09:14.402Z,3.47
2019-04-26T09:11:41.665Z,3.50
2019-04-26T09:14:10.554Z,4.50
2019-04-26T09:16:49.858Z,5.00
2019-04-26T09:19:09.554Z,5.03
2019-04-26T09:24:27.424Z,5.50
2019-04-26T09:27:06.644Z,5.90
2019-04-26T09:29:36.996Z,6.93
2019-04-26T09:32:10.037Z,6.27
2019-04-26T09:34:41.540Z,6.37
2019-04-26T09:37:10.976Z,7.87
2019-04-26T09:39:41.570Z,6.70
2019-04-26T09:42:26.658Z,5.57
2019-04-26T09:45:11.991Z,5.53
2019-04-26T09:47:48.068Z,4.17
2019-04-26T09:50:24.143Z,4.37
2019-04-26T09:52:54.302Z,4.00
2019-04-26T09:55:34.540Z,4.10
2019-04-26T09:57:53.484Z,4.53
2019-04-26T10:00:30.609Z,4.10
2019-04-26T10:02:59.378Z,3.43
2019-04-26T10:05:27.696Z,4.37
2019-04-26T10:07:56.317Z,5.22
2019-04-26T10:10:26.354Z,3.77
2019-04-26T10:12:56.607Z,3.93
2019-04-26T10:15:29.800Z,3.60
2019-04-26T10:17:59.170Z,3.53
2019-04-26T10:20:27.827Z,3.30
2019-04-26T10:22:56.356Z,3.55
2019-04-26T10:25:24.682Z,2.67
2019-04-26T10:27:53.371Z,3.17
2019-04-26T10:30:21.697Z,2.70
2019-04-26T10:32:50.097Z,2.50
2019-04-26T10:35:21.737Z,2.72
2019-04-26T10:37:49.287Z,3.20
2019-04-26T10:40:18.397Z,2.40
2019-04-26T10:45:16.326Z,4.20
2019-04-26T10:47:45.131Z,2.90
2019-04-26T10:50:13.825Z,2.80
2019-04-26T10:55:21.114Z,3.17
2019-04-26T10:57:55.852Z,3.70
2019-04-26T11:00:38.137Z,3.30
2019-04-26T11:03:06.823Z,3.27
2019-04-26T11:05:35.204Z,3.22
2019-04-26T11:08:03.774Z,2.70
2019-04-26T11:13:00.028Z,3.20
2019-04-26T11:17:57.683Z,3.65
2019-04-26T11:20:26.302Z,3.65
2019-04-26T11:25:24.705Z,3.22
2019-04-26T11:27:53.073Z,2.50
2019-04-26T11:35:17.831Z,2.40
2019-04-26T11:40:15.875Z,2.40
2019-04-26T11:42:45.762Z,2.23
2019-04-26T11:45:16.101Z,2.30
2019-04-26T11:47:55.477Z,2.03
2019-04-26T11:50:16.057Z,1.93
2019-04-26T11:52:45.274Z,1.33
2019-04-26T11:57:43.664Z,1.95
2019-04-26T12:00:15.100Z,1.90
2019-04-26T12:02:46.323Z,2.27
2019-04-26T12:05:31.341Z,2.70
2019-04-26T12:08:07.451Z,3.10
2019-04-26T12:10:36.127Z,3.93
2019-04-26T12:13:05.961Z,3.35
2019-04-26T12:15:34.968Z,2.77
2019-04-26T12:18:05.606Z,2.10
2019-04-26T12:20:33.917Z,3.00
2019-04-26T12:23:02.568Z,3.17
2019-04-26T12:28:02.053Z,2.60
2019-04-26T12:30:30.003Z,2.43
2019-04-26T12:35:26.438Z,1.60
2019-04-26T12:37:55.819Z,2.90
2019-04-26T12:40:24.543Z,2.83
2019-04-26T12:42:53.023Z,3.30
2019-04-26T12:47:55.337Z,3.50
2019-04-26T12:50:24.021Z,3.23
2019-04-26T12:55:21.952Z,2.30
2019-04-26T13:00:20.058Z,3.70
2019-04-26T13:02:50.140Z,3.23
2019-04-26T13:05:20.548Z,3.30
2019-04-26T13:07:53.889Z,3.80
2019-04-26T13:10:44.798Z,3.30
2019-04-26T13:13:23.500Z,3.57
2019-04-26T13:16:06.164Z,3.83
2019-04-26T13:18:34.862Z,4.17
2019-04-26T13:21:04.340Z,3.83
2019-04-26T13:23:33.234Z,3.37
2019-04-26T13:26:01.771Z,3.67
2019-04-26T13:28:30.525Z,3.70
2019-04-26T13:31:01.911Z,3.55
2019-04-26T13:33:29.292Z,4.20
2019-04-26T13:38:27.122Z,3.83
2019-04-26T13:40:55.498Z,4.78
2019-04-26T13:43:26.996Z,5.37
2019-04-26T13:45:56.043Z,4.90
2019-04-26T13:48:39.142Z,4.13
2019-04-26T13:51:16.087Z,3.87
2019-04-26T13:53:44.808Z,3.80
2019-04-26T13:58:41.121Z,4.62
2019-04-26T14:06:05.803Z,6.12
2019-04-26T14:08:34.196Z,6.08
2019-04-26T14:11:02.608Z,5.65
2019-04-26T14:13:31.214Z,6.33
2019-04-26T14:18:28.244Z,7.03
2019-04-26T14:20:58.910Z,6.20
2019-04-26T14:23:34.651Z,6.33
2019-04-26T14:26:10.781Z,7.37
2019-04-26T14:28:41.914Z,7.83
2019-04-26T14:31:12.332Z,7.20
2019-04-26T14:33:40.220Z,6.00
2019-04-26T14:38:40.229Z,7.75
2019-04-26T14:41:08.485Z,9.00
2019-04-26T14:43:40.892Z,9.70
2019-04-26T14:46:10.356Z,10.53
2019-04-26T14:48:40.533Z,8.93
2019-04-26T14:51:12.017Z,9.30
2019-04-26T14:53:38.656Z,8.97
2019-04-26T14:56:07.420Z,9.50
2019-04-26T14:58:36.209Z,8.83
2019-04-26T15:01:15.632Z,7.77
2019-04-26T15:03:45.966Z,12.23
2019-04-26T15:06:23.675Z,6.13
2019-04-26T15:08:53.115Z,7.40
2019-04-26T15:11:22.939Z,6.13
2019-04-26T15:13:51.810Z,6.87
2019-04-26T15:16:22.240Z,6.03
2019-04-26T15:18:52.448Z,5.80
2019-04-26T15:21:22.832Z,5.30
2019-04-26T15:23:55.432Z,4.70
2019-04-26T15:26:27.439Z,4.03
2019-04-26T15:28:52.685Z,4.37
2019-04-26T15:31:24.695Z,3.77
2019-04-26T15:33:52.833Z,3.17
2019-04-26T15:36:23.136Z,2.47
2019-04-26T15:38:52.815Z,3.10
2019-04-26T15:41:29.255Z,2.70
2019-04-26T15:44:02.718Z,2.30
2019-04-26T15:46:49.902Z,2.10
2019-04-26T15:49:36.514Z,2.50
2019-04-26T15:52:02.944Z,6.97
2019-04-26T15:54:32.360Z,1.97
2019-04-26T15:57:02.179Z,1.53
2019-04-26T15:59:30.910Z,2.07
2019-04-26T16:01:59.288Z,1.70
2019-04-26T16:04:27.699Z,1.57
2019-04-26T16:06:56.381Z,1.37
2019-04-26T16:09:25.081Z,1.40
2019-04-26T16:11:55.295Z,1.17
2019-04-26T16:14:26.465Z,1.30
2019-04-26T16:16:54.399Z,1.10
2019-04-26T16:19:26.676Z,1.25
2019-04-26T16:21:55.273Z,1.40
2019-04-26T16:24:24.098Z,1.00
2019-04-26T16:26:56.142Z,1.30
2019-04-26T16:29:28.624Z,1.40
2019-04-26T16:31:58.935Z,1.50
2019-04-26T16:34:32.475Z,1.80
2019-04-26T16:37:02.951Z,1.50
2019-04-26T16:39:38.270Z,1.30
2019-04-26T16:42:05.165Z,1.97
2019-04-26T16:44:33.470Z,1.50
2019-04-26T16:47:05.703Z,1.57
2019-04-26T16:49:35.172Z,1.50
2019-04-26T16:52:06.822Z,1.90
2019-04-26T16:54:34.334Z,1.60
2019-04-26T16:57:06.380Z,1.67
2019-04-26T16:59:33.452Z,1.57
2019-04-26T17:02:02.805Z,2.22
2019-04-26T17:04:35.148Z,2.07
2019-04-26T17:07:04.795Z,2.03
2019-04-26T17:09:54.280Z,2.40
2019-04-26T17:12:02.665Z,2.23
2019-04-26T17:14:33.970Z,1.80
2019-04-26T17:17:03.168Z,2.07
2019-04-26T17:19:34.287Z,2.20
2019-04-26T17:22:15.989Z,2.70
2019-04-26T17:24:49.407Z,5.40
2019-04-26T17:27:19.739Z,3.30
2019-04-26T17:29:48.422Z,2.97
2019-04-26T17:32:17.452Z,4.00
2019-04-26T17:34:47.459Z,4.27
2019-04-26T17:37:17.470Z,3.67
2019-04-26T17:39:47.513Z,3.50
2019-04-26T17:42:16.713Z,3.80
2019-04-26T17:44:45.415Z,11.63
2019-04-26T17:47:14.121Z,14.55
2019-04-26T17:49:44.009Z,3.83
2019-04-26T17:52:12.812Z,3.77
2019-04-26T17:54:46.699Z,4.20
2019-04-26T17:57:14.405Z,3.80
2019-04-26T17:59:47.690Z,3.53
2019-04-26T18:02:25.858Z,3.40
2019-04-26T18:04:43.238Z,4.03
2019-04-26T18:07:36.098Z,3.97
2019-04-26T18:09:46.544Z,4.80
2019-04-26T18:12:12.783Z,6.20
2019-04-26T18:14:41.189Z,5.50
2019-04-26T18:17:11.505Z,5.75
2019-04-26T18:19:47.831Z,6.03
2019-04-26T18:22:28.506Z,6.97
2019-04-26T18:24:57.458Z,6.03
2019-04-26T18:27:29.826Z,5.95
2019-04-26T18:29:59.839Z,5.87
2019-04-26T18:32:27.149Z,7.42
2019-04-26T18:34:55.762Z,7.55
2019-04-26T18:37:24.433Z,9.30
2019-04-26T18:39:53.527Z,8.00
2019-04-26T18:42:22.355Z,8.60
2019-04-26T18:44:51.058Z,7.78
2019-04-26T18:47:27.456Z,12.85
2019-04-26T18:49:57.983Z,18.42
2019-04-26T18:52:26.042Z,18.70
2019-04-26T18:55:05.775Z,11.30
2019-04-26T18:57:34.580Z,14.77
2019-04-26T19:00:04.203Z,15.08
2019-04-26T19:02:33.350Z,16.20
2019-04-26T19:05:05.676Z,17.00
2019-04-26T19:07:34.687Z,18.32
2019-04-26T19:10:05.597Z,17.05
2019-04-26T19:12:34.649Z,16.85
2019-04-26T19:15:22.099Z,16.77
2019-04-26T19:17:52.432Z,16.97
2019-04-26T19:20:39.579Z,17.05
2019-04-26T19:23:09.361Z,16.62
2019-04-26T19:25:40.845Z,17.32
2019-04-26T19:28:09.106Z,19.95
2019-04-26T19:30:39.950Z,21.42
2019-04-26T19:33:11.510Z,20.57
2019-04-26T19:35:39.395Z,21.55
2019-04-26T19:38:13.312Z,23.40
2019-04-26T19:40:46.353Z,23.50
2019-04-26T19:43:12.441Z,22.80
2019-04-26T19:45:47.025Z,24.18
2019-04-26T19:48:20.446Z,23.83
2019-04-26T19:50:52.716Z,23.95
2019-04-26T19:53:24.928Z,25.17
2019-04-26T19:55:58.389Z,28.80
2019-04-26T19:58:28.661Z,29.80
2019-04-26T20:00:57.341Z,28.47
2019-04-26T20:03:26.067Z,29.70
2019-04-26T20:05:54.467Z,31.52
2019-04-26T20:08:23.522Z,32.98
2019-04-26T20:10:52.356Z,28.57
2019-04-26T20:13:22.038Z,32.20
2019-04-26T20:15:53.042Z,31.93
2019-04-26T20:18:21.897Z,33.08
2019-04-26T20:20:52.114Z,35.95
2019-04-26T20:23:22.721Z,36.08
2019-04-26T20:25:53.060Z,37.33
2019-04-26T20:28:22.898Z,35.92
2019-04-26T20:31:08.602Z,35.13
2019-04-26T20:33:36.569Z,35.48
2019-04-26T20:36:05.346Z,36.23
2019-04-26T20:38:42.844Z,34.45
2019-04-26T20:41:04.564Z,39.50
2019-04-26T20:43:36.317Z,37.67
2019-04-26T20:46:14.041Z,40.45
2019-04-26T20:48:39.808Z,37.90
2019-04-26T20:51:10.863Z,37.73
2019-04-26T20:53:41.339Z,39.10
2019-04-26T20:56:16.243Z,43.73
2019-04-26T20:58:43.305Z,39.87
2019-04-26T21:01:14.099Z,43.65
2019-04-26T21:03:45.786Z,42.48
2019-04-26T21:06:12.853Z,42.85
2019-04-26T21:08:42.427Z,45.12
2019-04-26T21:11:13.708Z,41.02
2019-04-26T21:13:42.296Z,45.03
2019-04-26T21:16:15.339Z,42.55
2019-04-26T21:18:44.274Z,42.40
2019-04-26T21:21:15.689Z,44.10
2019-04-26T21:23:44.022Z,42.73
2019-04-26T21:26:17.650Z,43.10
2019-04-26T21:28:48.203Z,46.10
2019-04-26T21:31:24.852Z,42.98
2019-04-26T21:34:07.937Z,46.95
2019-04-26T21:36:46.068Z,37.83
2019-04-26T21:39:19.625Z,39.70
2019-04-26T21:41:50.274Z,44.18
2019-04-26T21:44:19.274Z,44.15
2019-04-26T21:46:49.653Z,40.33
2019-04-26T21:49:20.746Z,38.77
2019-04-26T21:51:52.119Z,38.73
2019-04-26T21:54:19.481Z,38.55
2019-04-26T21:56:49.607Z,41.28
2019-04-26T21:59:18.503Z,39.98
2019-04-26T22:01:48.303Z,41.70
2019-04-26T22:04:17.815Z,38.53
2019-04-26T22:06:46.499Z,38.98
2019-04-26T22:09:28.625Z,40.17
2019-04-26T22:11:56.540Z,40.52
2019-04-26T22:17:08.169Z,41.42
2019-04-26T22:19:38.743Z,44.05
2019-04-26T22:22:09.388Z,46.55
2019-04-26T22:24:39.640Z,50.93
2019-04-26T22:27:08.333Z,54.40
2019-04-26T22:29:36.978Z,50.35
2019-04-26T22:32:05.948Z,45.78
2019-04-26T22:37:11.155Z,41.10
2019-04-26T22:39:39.838Z,42.55
2019-04-26T22:42:05.447Z,47.33
2019-04-26T22:44:36.102Z,44.35
2019-04-26T22:47:09.635Z,40.70
2019-04-26T22:49:41.618Z,44.48
2019-04-26T22:52:11.215Z,41.40
2019-04-26T22:54:44.674Z,46.13
2019-04-26T22:57:13.162Z,42.27
2019-04-26T22:59:43.311Z,44.67
2019-04-26T23:02:13.814Z,43.65
2019-04-26T23:04:42.988Z,43.90
2019-04-26T23:10:17.588Z,46.05
2019-04-26T23:12:51.008Z,45.65
2019-04-26T23:15:37.979Z,46.18
2019-04-26T23:18:20.897Z,46.50
2019-04-26T23:20:57.621Z,44.15
2019-04-26T23:23:26.552Z,48.45
2019-04-26T23:25:55.181Z,47.80
2019-04-26T23:28:27.627Z,48.58
2019-04-26T23:30:54.700Z,44.03
2019-04-26T23:33:23.965Z,44.50
2019-04-26T23:35:53.193Z,49.93
2019-04-26T23:38:23.412Z,53.40
2019-04-26T23:40:52.540Z,46.35
2019-04-26T23:43:22.496Z,52.90
2019-04-26T23:45:53.029Z,86.40
2019-04-26T23:48:21.756Z,62.73
2019-04-26T23:50:50.446Z,49.25
2019-04-26T23:53:20.199Z,48.33
2019-04-26T23:55:49.430Z,50.23
2019-04-26T23:58:18.109Z,50.80
